Time;durP1;ratioP1;P1;durP2;ratioP2;P2;SDS_P1;SDS_P2;PMS_P1;PMS_P2;Temp;Humidity;BMP_temperature;BMP_pressure;BME280_temperature;BME280_humidity;BME280_pressure;Samples;Min_cycle;Max_cycle;Signal;HPM_P1;HPM_P2
2021/07/04 00:02:00;;;;;;;5.70;1.30;;;;;;;;;;5016213;28;20037;-64
2021/07/04 00:04:26;;;;;;;1.92;1.00;;;;;;;;;;5012304;28;20412;-64
2021/07/04 00:06:52;;;;;;;3.40;1.00;;;;;;;;;;5018586;28;20043;-64
2021/07/04 00:09:17;;;;;;;2.60;1.00;;;;;;;;;;5015134;28;20029;-64
2021/07/04 00:11:43;;;;;;;1.80;0.90;;;;;;;;;;5016818;28;20029;-65
2021/07/04 00:14:09;;;;;;;4.20;1.00;;;;;;;;;;5019086;28;20092;-64
2021/07/04 00:16:35;;;;;;;2.92;0.90;;;;;;;;;;5017516;28;20478;-64
2021/07/04 00:19:00;;;;;;;1.77;0.90;;;;;;;;;;5012387;28;20052;-65
2021/07/04 00:21:26;;;;;;;2.00;0.98;;;;;;;;;;4965645;28;1293418;-65
2021/07/04 00:23:52;;;;;;;3.03;1.00;;;;;;;;;;5017866;28;20032;-64
2021/07/04 00:26:17;;;;;;;2.75;0.80;;;;;;;;;;5019353;28;20451;-64
2021/07/04 00:28:43;;;;;;;1.55;0.60;;;;;;;;;;5014675;28;20511;-65
2021/07/04 00:31:08;;;;;;;2.55;0.47;;;;;;;;;;5011972;28;20168;-65
2021/07/04 00:33:34;;;;;;;0.75;0.60;;;;;;;;;;5021576;28;20113;-64
2021/07/04 00:36:00;;;;;;;0.40;0.40;;;;;;;;;;5019043;28;20030;-65
2021/07/04 00:38:26;;;;;;;0.43;0.38;;;;;;;;;;5013202;28;20116;-64
2021/07/04 00:40:51;;;;;;;0.70;0.50;;;;;;;;;;5016415;28;20045;-64
2021/07/04 00:43:17;;;;;;;0.57;0.47;;;;;;;;;;5017129;28;20052;-64
2021/07/04 00:45:43;;;;;;;0.63;0.40;;;;;;;;;;5016197;28;20273;-64
2021/07/04 00:48:09;;;;;;;0.52;0.40;;;;;;;;;;5016952;28;20648;-64
2021/07/04 00:50:35;;;;;;;0.70;0.70;;;;;;;;;;5019466;28;20030;-64
2021/07/04 00:53:02;;;;;;;1.08;0.75;;;;;;;;;;5020946;28;20030;-65
2021/07/04 00:55:28;;;;;;;1.95;1.10;;;;;;;;;;5011745;28;20075;-65
2021/07/04 00:57:54;;;;;;;1.15;0.60;;;;;;;;;;5017575;28;20041;-65
2021/07/04 01:00:23;;;;;;;2.15;0.90;;;;;;;;;;5003226;28;20061;-65
2021/07/04 01:02:49;;;;;;;1.83;1.20;;;;;;;;;;4995772;28;20538;-64
2021/07/04 01:05:17;;;;;;;1.98;0.80;;;;;;;;;;4995932;28;20038;-63
2021/07/04 01:07:44;;;;;;;0.95;0.85;;;;;;;;;;4991175;28;20036;-66
2021/07/04 01:10:12;;;;;;;2.15;1.00;;;;;;;;;;5001679;28;20033;-65
2021/07/04 01:12:38;;;;;;;1.48;0.77;;;;;;;;;;4993103;28;20552;-64
2021/07/04 01:15:05;;;;;;;1.33;0.88;;;;;;;;;;5003745;28;20033;-64
2021/07/04 01:17:33;;;;;;;4.15;1.13;;;;;;;;;;4997504;28;20603;-64
2021/07/04 01:19:59;;;;;;;1.33;0.98;;;;;;;;;;4990634;28;20033;-64
2021/07/04 01:22:26;;;;;;;1.20;1.08;;;;;;;;;;4990528;28;20784;-64
2021/07/04 01:24:52;;;;;;;0.98;0.98;;;;;;;;;;4994047;28;20036;-63
2021/07/04 01:27:18;;;;;;;2.20;1.23;;;;;;;;;;4991329;28;20026;-66
2021/07/04 01:29:43;;;;;;;2.50;1.15;;;;;;;;;;4994805;28;20397;-65
2021/07/04 01:32:09;;;;;;;1.30;1.10;;;;;;;;;;4991798;28;20489;-64
2021/07/04 01:34:34;;;;;;;1.63;1.05;;;;;;;;;;4994194;28;20030;-65
2021/07/04 01:37:00;;;;;;;2.15;0.93;;;;;;;;;;4990134;28;20528;-65
2021/07/04 01:39:27;;;;;;;1.20;0.90;;;;;;;;;;5000378;28;20117;-65
2021/07/04 01:41:53;;;;;;;1.00;0.90;;;;;;;;;;4990449;28;20061;-64
2021/07/04 01:44:18;;;;;;;2.45;1.10;;;;;;;;;;4991824;28;20015;-65
2021/07/04 01:46:43;;;;;;;2.42;1.20;;;;;;;;;;4995712;28;20736;-65
2021/07/04 01:49:09;;;;;;;1.85;1.27;;;;;;;;;;4989950;28;20033;-65
2021/07/04 01:51:35;;;;;;;2.47;1.05;;;;;;;;;;4993954;28;20414;-65
2021/07/04 01:54:01;;;;;;;1.20;1.10;;;;;;;;;;4990340;28;20030;-64
2021/07/04 01:56:26;;;;;;;5.47;1.15;;;;;;;;;;4999270;28;20393;-64
2021/07/04 01:58:52;;;;;;;0.98;0.90;;;;;;;;;;5000649;28;20584;-64
2021/07/04 02:01:17;;;;;;;1.10;0.90;;;;;;;;;;4993598;28;20034;-65
2021/07/04 02:03:43;;;;;;;1.10;0.93;;;;;;;;;;5000061;28;20058;-64
2021/07/04 02:06:08;;;;;;;1.58;1.05;;;;;;;;;;4991944;28;20030;-64
2021/07/04 02:08:33;;;;;;;2.35;0.93;;;;;;;;;;4990528;28;20030;-65
2021/07/04 02:10:59;;;;;;;1.83;1.13;;;;;;;;;;4993659;28;20084;-65
2021/07/04 02:13:24;;;;;;;1.38;0.95;;;;;;;;;;4998559;28;20527;-66
2021/07/04 02:15:50;;;;;;;1.30;0.77;;;;;;;;;;4999048;28;20113;-65
2021/07/04 02:18:17;;;;;;;1.23;0.82;;;;;;;;;;4999296;28;20041;-65
2021/07/04 02:20:45;;;;;;;1.33;0.90;;;;;;;;;;4995643;28;20065;-65
2021/07/04 02:23:17;;;;;;;2.20;0.93;;;;;;;;;;4994938;28;20570;-65
2021/07/04 02:25:45;;;;;;;0.95;0.82;;;;;;;;;;5000026;28;20117;-65
2021/07/04 02:28:13;;;;;;;1.15;1.00;;;;;;;;;;4996590;28;20039;-65
2021/07/04 02:30:40;;;;;;;2.47;1.20;;;;;;;;;;4993994;28;20026;-65
2021/07/04 02:33:07;;;;;;;1.08;0.95;;;;;;;;;;4993812;28;20034;-65
2021/07/04 02:35:39;;;;;;;1.77;1.02;;;;;;;;;;4998775;28;20045;-65
2021/07/04 02:38:05;;;;;;;;;;;;;;;;;;4991757;28;20101;-65
2021/07/04 02:40:30;;;;;;;2.17;1.10;;;;;;;;;;4997703;28;20020;-64
2021/07/04 02:42:56;;;;;;;3.10;1.40;;;;;;;;;;4998572;28;20485;-65
2021/07/04 02:45:23;;;;;;;3.08;1.60;;;;;;;;;;4998007;28;20022;-65
2021/07/04 02:47:48;;;;;;;3.67;1.60;;;;;;;;;;4998106;28;20076;-65
2021/07/04 02:50:14;;;;;;;2.17;1.38;;;;;;;;;;4991228;28;20018;-65
2021/07/04 02:52:40;;;;;;;4.47;1.90;;;;;;;;;;4995110;28;20417;-65
2021/07/04 02:55:08;;;;;;;4.10;1.83;;;;;;;;;;4994209;28;20052;-65
2021/07/04 02:57:33;;;;;;;2.67;1.58;;;;;;;;;;4996581;28;20060;-65
2021/07/04 02:59:59;;;;;;;2.15;1.80;;;;;;;;;;4999059;28;20065;-65
2021/07/04 03:02:26;;;;;;;3.50;1.58;;;;;;;;;;4994487;28;20061;-65
2021/07/04 03:04:52;;;;;;;4.05;2.00;;;;;;;;;;4993811;28;20030;-65
2021/07/04 03:07:17;;;;;;;6.07;2.15;;;;;;;;;;4994957;28;20046;-65
2021/07/04 03:09:43;;;;;;;4.90;1.95;;;;;;;;;;5001310;28;20148;-64
2021/07/04 03:12:10;;;;;;;4.82;2.00;;;;;;;;;;4998989;28;20029;-65
2021/07/04 03:14:36;;;;;;;4.90;2.03;;;;;;;;;;4992731;28;20031;-65
2021/07/04 03:17:02;;;;;;;9.18;3.15;;;;;;;;;;5000341;28;20104;-65
2021/07/04 03:19:28;;;;;;;3.60;2.00;;;;;;;;;;4999870;28;20121;-64
2021/07/04 03:21:54;;;;;;;4.13;2.20;;;;;;;;;;5001167;28;20049;-63
2021/07/04 03:24:19;;;;;;;4.30;2.22;;;;;;;;;;5003060;28;20540;-65
2021/07/04 03:26:45;;;;;;;4.25;2.05;;;;;;;;;;4997315;28;20502;-65
2021/07/04 03:29:10;;;;;;;2.80;2.05;;;;;;;;;;4995652;28;20038;-65
2021/07/04 03:31:36;;;;;;;3.17;2.05;;;;;;;;;;4999072;28;20125;-65
2021/07/04 03:34:02;;;;;;;4.78;2.25;;;;;;;;;;4979689;28;20505;-65
2021/07/04 03:36:27;;;;;;;4.22;2.00;;;;;;;;;;5001491;28;20543;-65
2021/07/04 03:38:53;;;;;;;5.00;2.50;;;;;;;;;;5002397;28;20038;-65
2021/07/04 03:41:18;;;;;;;10.02;2.50;;;;;;;;;;4994871;28;20451;-64
2021/07/04 03:43:44;;;;;;;4.75;2.40;;;;;;;;;;4998968;28;20029;-65
2021/07/04 03:46:09;;;;;;;6.65;3.00;;;;;;;;;;4997336;28;20038;-65
2021/07/04 03:48:35;;;;;;;4.80;2.70;;;;;;;;;;5000259;28;20029;-65
2021/07/04 03:51:01;;;;;;;7.13;2.88;;;;;;;;;;4997445;28;20042;-64
2021/07/04 03:53:27;;;;;;;5.57;2.72;;;;;;;;;;4991297;28;20034;-63
2021/07/04 03:55:53;;;;;;;6.35;3.13;;;;;;;;;;4992153;28;20037;-64
2021/07/04 03:58:18;;;;;;;6.07;2.20;;;;;;;;;;4993709;28;20646;-64
2021/07/04 04:00:44;;;;;;;8.18;2.85;;;;;;;;;;4996815;28;20029;-65
2021/07/04 04:03:09;;;;;;;5.28;2.58;;;;;;;;;;4997762;28;20030;-64
2021/07/04 04:05:35;;;;;;;14.52;3.28;;;;;;;;;;4998494;28;20034;-63
2021/07/04 04:08:00;;;;;;;5.00;2.53;;;;;;;;;;4994758;28;20022;-64
2021/07/04 04:10:26;;;;;;;8.05;2.40;;;;;;;;;;4995531;28;20041;-64
2021/07/04 04:12:51;;;;;;;7.47;2.72;;;;;;;;;;4990896;28;20045;-65
2021/07/04 04:15:17;;;;;;;6.15;2.53;;;;;;;;;;5000618;28;20144;-64
2021/07/04 04:17:42;;;;;;;10.60;3.55;;;;;;;;;;4996144;28;20045;-63
2021/07/04 04:20:09;;;;;;;4.75;2.50;;;;;;;;;;4996819;28;20030;-66
2021/07/04 04:22:36;;;;;;;4.55;2.40;;;;;;;;;;4997991;28;20033;-65
2021/07/04 04:25:04;;;;;;;8.35;2.67;;;;;;;;;;5003761;28;20037;-65
2021/07/04 04:27:29;;;;;;;5.30;2.47;;;;;;;;;;4995786;28;20034;-65
2021/07/04 04:29:55;;;;;;;6.43;2.80;;;;;;;;;;5002681;28;20095;-64
2021/07/04 04:32:20;;;;;;;4.75;2.97;;;;;;;;;;5005373;28;20033;-65
2021/07/04 04:34:46;;;;;;;5.03;2.65;;;;;;;;;;5003212;28;20030;-67
2021/07/04 04:37:11;;;;;;;4.40;2.50;;;;;;;;;;4997437;28;20401;-65
2021/07/04 04:39:37;;;;;;;5.13;2.72;;;;;;;;;;4992583;28;20461;-63
2021/07/04 04:42:03;;;;;;;6.55;2.78;;;;;;;;;;4997769;28;20518;-64
2021/07/04 04:44:28;;;;;;;4.68;1.67;;;;;;;;;;4996102;28;20105;-64
2021/07/04 04:46:54;;;;;;;5.18;1.55;;;;;;;;;;4997694;28;20408;-63
2021/07/04 04:49:19;;;;;;;4.45;1.73;;;;;;;;;;4995081;28;20038;-64
2021/07/04 04:51:45;;;;;;;2.25;1.02;;;;;;;;;;5000921;28;20049;-64
2021/07/04 04:54:10;;;;;;;2.90;1.05;;;;;;;;;;4997288;28;20033;-64
2021/07/04 04:56:36;;;;;;;2.67;1.38;;;;;;;;;;5001977;28;20034;-63
2021/07/04 04:59:03;;;;;;;1.83;1.10;;;;;;;;;;4994802;28;20026;-64
2021/07/04 05:01:29;;;;;;;1.67;0.90;;;;;;;;;;4998588;28;20230;-64
2021/07/04 05:03:58;;;;;;;3.13;1.20;;;;;;;;;;4999749;28;20022;-64
2021/07/04 05:06:23;;;;;;;2.88;1.10;;;;;;;;;;4994641;28;20286;-64
2021/07/04 05:08:49;;;;;;;2.40;1.10;;;;;;;;;;4996968;28;20034;-65
2021/07/04 05:11:15;;;;;;;3.13;1.10;;;;;;;;;;4995783;28;20036;-65
2021/07/04 05:13:40;;;;;;;2.70;1.08;;;;;;;;;;4991935;28;20049;-63
2021/07/04 05:16:07;;;;;;;1.92;1.00;;;;;;;;;;4994241;28;20029;-64
2021/07/04 05:18:33;;;;;;;2.15;0.98;;;;;;;;;;4993829;28;20042;-65
2021/07/04 05:20:59;;;;;;;2.10;0.98;;;;;;;;;;4991822;28;20141;-64
2021/07/04 05:23:24;;;;;;;2.53;1.48;;;;;;;;;;4991901;28;20120;-65
2021/07/04 05:25:50;;;;;;;2.97;1.00;;;;;;;;;;4988069;28;20037;-65
2021/07/04 05:28:19;;;;;;;2.83;1.20;;;;;;;;;;4990583;28;20508;-65
2021/07/04 05:30:45;;;;;;;3.58;1.27;;;;;;;;;;4997097;28;20030;-65
2021/07/04 05:33:10;;;;;;;2.78;1.13;;;;;;;;;;4993340;28;20041;-65
2021/07/04 05:35:36;;;;;;;2.78;1.13;;;;;;;;;;4994782;28;20281;-66
2021/07/04 05:38:02;;;;;;;3.28;1.02;;;;;;;;;;4994778;28;20029;-65
2021/07/04 05:40:28;;;;;;;2.47;1.20;;;;;;;;;;4998352;28;20033;-65
2021/07/04 05:42:56;;;;;;;4.45;1.40;;;;;;;;;;4990604;28;20465;-65
2021/07/04 05:45:24;;;;;;;5.22;1.45;;;;;;;;;;4994796;28;20037;-65
2021/07/04 05:47:50;;;;;;;1.95;1.27;;;;;;;;;;4993772;28;20568;-65
2021/07/04 05:50:15;;;;;;;3.30;1.45;;;;;;;;;;4994793;28;20095;-65
2021/07/04 05:52:41;;;;;;;5.55;1.80;;;;;;;;;;4991675;28;20030;-65
2021/07/04 05:55:07;;;;;;;4.95;1.70;;;;;;;;;;4995792;28;20117;-65
2021/07/04 05:57:33;;;;;;;3.90;1.90;;;;;;;;;;4998090;28;20065;-65
2021/07/04 05:59:58;;;;;;;4.90;1.75;;;;;;;;;;4994584;28;20031;-65
2021/07/04 06:02:24;;;;;;;2.95;1.23;;;;;;;;;;4992701;28;20052;-65
2021/07/04 06:04:49;;;;;;;4.43;1.70;;;;;;;;;;5000569;28;20037;-66
2021/07/04 06:07:15;;;;;;;3.30;1.70;;;;;;;;;;4997106;28;20030;-65
2021/07/04 06:09:40;;;;;;;2.33;1.77;;;;;;;;;;4989857;28;20034;-65
2021/07/04 06:12:06;;;;;;;3.08;1.50;;;;;;;;;;4995104;28;20496;-65
2021/07/04 06:14:31;;;;;;;3.20;1.67;;;;;;;;;;4999196;28;20032;-64
2021/07/04 06:16:57;;;;;;;5.43;1.27;;;;;;;;;;4991051;28;20729;-65
2021/07/04 06:19:23;;;;;;;8.07;1.70;;;;;;;;;;4992214;28;20120;-64
2021/07/04 06:21:48;;;;;;;3.25;1.48;;;;;;;;;;4995928;28;20198;-65
2021/07/04 06:24:13;;;;;;;3.45;1.70;;;;;;;;;;4997114;28;20057;-65
2021/07/04 06:26:39;;;;;;;6.15;1.60;;;;;;;;;;4991368;28;20353;-65
2021/07/04 06:29:04;;;;;;;4.80;1.75;;;;;;;;;;4989415;28;20497;-65
2021/07/04 06:31:31;;;;;;;7.00;1.80;;;;;;;;;;4993610;28;20038;-66
2021/07/04 06:33:57;;;;;;;3.15;1.52;;;;;;;;;;4993447;28;20033;-65
2021/07/04 06:36:29;;;;;;;3.35;1.67;;;;;;;;;;4994817;28;20465;-66
2021/07/04 06:38:55;;;;;;;4.22;1.60;;;;;;;;;;4996126;28;20396;-66
2021/07/04 06:41:22;;;;;;;3.40;1.85;;;;;;;;;;4990412;28;20042;-65
2021/07/04 06:43:47;;;;;;;5.75;1.80;;;;;;;;;;4993421;28;20112;-64
2021/07/04 06:46:13;;;;;;;2.38;1.50;;;;;;;;;;4998024;28;20030;-64
2021/07/04 06:48:39;;;;;;;7.00;2.00;;;;;;;;;;5000512;28;20045;-65
2021/07/04 06:51:06;;;;;;;5.80;1.90;;;;;;;;;;4997217;28;20125;-66
2021/07/04 06:53:31;;;;;;;8.13;1.73;;;;;;;;;;4996614;28;20044;-65
2021/07/04 06:55:57;;;;;;;3.72;1.80;;;;;;;;;;4996544;28;20577;-65
2021/07/04 06:58:23;;;;;;;6.93;1.90;;;;;;;;;;5000273;28;20038;-66
2021/07/04 07:00:48;;;;;;;6.30;1.90;;;;;;;;;;5001980;28;20497;-66
2021/07/04 07:03:14;;;;;;;3.45;2.10;;;;;;;;;;4999517;28;20064;-65
2021/07/04 07:05:40;;;;;;;6.72;1.85;;;;;;;;;;4998624;28;20037;-65
2021/07/04 07:08:05;;;;;;;3.63;2.03;;;;;;;;;;5007853;28;20401;-65
2021/07/04 07:10:31;;;;;;;7.55;2.42;;;;;;;;;;4996036;28;20170;-65
2021/07/04 07:12:58;;;;;;;6.40;1.85;;;;;;;;;;5000187;28;20030;-65
2021/07/04 07:15:23;;;;;;;7.30;2.90;;;;;;;;;;5003661;28;20036;-65
2021/07/04 07:17:49;;;;;;;4.47;2.28;;;;;;;;;;4998011;28;20452;-65
2021/07/04 07:20:15;;;;;;;5.20;2.20;;;;;;;;;;4998207;28;20505;-66
2021/07/04 07:22:41;;;;;;;3.17;2.10;;;;;;;;;;4996781;28;20062;-66
2021/07/04 07:25:07;;;;;;;6.38;2.20;;;;;;;;;;4998136;28;20077;-65
2021/07/04 07:27:33;;;;;;;7.93;1.88;;;;;;;;;;5001425;28;20117;-64
2021/07/04 07:29:59;;;;;;;3.60;1.80;;;;;;;;;;5000463;28;20121;-65
2021/07/04 07:32:26;;;;;;;4.55;1.77;;;;;;;;;;4998385;28;20088;-66
2021/07/04 07:34:52;;;;;;;4.28;2.13;;;;;;;;;;4998407;28;20068;-65
2021/07/04 07:37:19;;;;;;;4.53;2.05;;;;;;;;;;4997936;28;20033;-66
2021/07/04 07:39:44;;;;;;;5.45;2.22;;;;;;;;;;4997006;28;20045;-66
2021/07/04 07:42:10;;;;;;;5.70;1.85;;;;;;;;;;4992790;28;20034;-66
2021/07/04 07:44:35;;;;;;;5.82;1.92;;;;;;;;;;4992208;28;20080;-66
2021/07/04 07:47:01;;;;;;;3.38;1.90;;;;;;;;;;4997406;28;20108;-66
2021/07/04 07:49:26;;;;;;;4.68;1.73;;;;;;;;;;4994643;28;20038;-66
2021/07/04 07:51:52;;;;;;;3.42;1.88;;;;;;;;;;5001748;28;20545;-66
2021/07/04 07:54:19;;;;;;;3.90;1.88;;;;;;;;;;4991463;28;20034;-66
2021/07/04 07:56:46;;;;;;;4.13;1.58;;;;;;;;;;4998660;28;20109;-66
2021/07/04 07:59:13;;;;;;;3.35;1.40;;;;;;;;;;4997275;28;20551;-66
2021/07/04 08:01:39;;;;;;;4.30;1.17;;;;;;;;;;4996884;28;20143;-66
2021/07/04 08:04:05;;;;;;;4.50;1.15;;;;;;;;;;4985821;28;20049;-59
2021/07/04 08:06:30;;;;;;;4.95;1.13;;;;;;;;;;4994710;28;20057;-60
2021/07/04 08:08:56;;;;;;;5.32;1.48;;;;;;;;;;5000698;28;20033;-60
2021/07/04 08:11:21;;;;;;;7.20;1.38;;;;;;;;;;4998622;28;20489;-59
2021/07/04 08:13:47;;;;;;;3.03;1.40;;;;;;;;;;4996801;28;20036;-59
2021/07/04 08:16:16;;;;;;;1.98;1.13;;;;;;;;;;4998467;28;20041;-58
2021/07/04 08:18:42;;;;;;;2.83;1.30;;;;;;;;;;5001421;28;20032;-59
2021/07/04 08:21:07;;;;;;;2.30;1.02;;;;;;;;;;5001030;28;20096;-59
2021/07/04 08:23:33;;;;;;;4.13;1.05;;;;;;;;;;5001166;28;20033;-59
2021/07/04 08:25:59;;;;;;;3.38;1.20;;;;;;;;;;5001627;28;20101;-58
2021/07/04 08:28:24;;;;;;;3.97;1.02;;;;;;;;;;5003024;28;20509;-58
2021/07/04 08:30:50;;;;;;;4.18;1.13;;;;;;;;;;5000272;28;20048;-58
2021/07/04 08:33:16;;;;;;;3.03;1.50;;;;;;;;;;5002533;28;20077;-66
2021/07/04 08:35:41;;;;;;;2.83;1.00;;;;;;;;;;4996796;28;20018;-66
2021/07/04 08:38:07;;;;;;;3.15;1.50;;;;;;;;;;4998350;28;20487;-67
2021/07/04 08:40:34;;;;;;;2.75;1.02;;;;;;;;;;5002826;28;20060;-66
2021/07/04 08:42:59;;;;;;;12.23;1.30;;;;;;;;;;4997855;28;20124;-67
2021/07/04 08:45:25;;;;;;;4.15;1.30;;;;;;;;;;4998608;28;20041;-65
2021/07/04 08:47:52;;;;;;;4.03;1.10;;;;;;;;;;4999945;28;20148;-65
2021/07/04 08:50:17;;;;;;;4.18;1.13;;;;;;;;;;5002737;28;20057;-65
2021/07/04 08:52:43;;;;;;;4.05;1.23;;;;;;;;;;5003481;28;20619;-65
2021/07/04 08:55:10;;;;;;;3.60;1.20;;;;;;;;;;4996275;28;20109;-65
2021/07/04 08:57:36;;;;;;;4.32;1.52;;;;;;;;;;5002294;28;20121;-65
2021/07/04 09:00:04;;;;;;;4.65;1.00;;;;;;;;;;4995787;28;20013;-66
2021/07/04 09:02:32;;;;;;;2.88;1.20;;;;;;;;;;4997128;28;20119;-66
2021/07/04 09:05:04;;;;;;;5.13;1.25;;;;;;;;;;4996510;28;20038;-66
2021/07/04 09:07:30;;;;;;;2.53;1.07;;;;;;;;;;5001826;28;20026;-66
2021/07/04 09:10:02;;;;;;;2.88;1.13;;;;;;;;;;4996353;28;20113;-66
2021/07/04 09:12:37;;;;;;;;;;;;;;;;;;4992521;28;20363;-64
2021/07/04 09:15:19;;;;;;;2.53;1.10;;;;;;;;;;5001080;28;20328;-65
2021/07/04 09:17:47;;;;;;;3.50;1.45;;;;;;;;;;4996119;28;20023;-64
2021/07/04 09:20:16;;;;;;;3.95;1.40;;;;;;;;;;4994146;28;20410;-65
2021/07/04 09:22:45;;;;;;;2.83;1.15;;;;;;;;;;4997005;28;20097;-66
2021/07/04 09:25:12;;;;;;;2.10;1.08;;;;;;;;;;4998559;28;20036;-66
2021/07/04 09:27:40;;;;;;;2.97;1.40;;;;;;;;;;5000389;28;20519;-66
2021/07/04 09:30:10;;;;;;;2.45;1.20;;;;;;;;;;5000472;28;20042;-66
2021/07/04 09:32:36;;;;;;;4.90;1.02;;;;;;;;;;4992720;28;20081;-66
2021/07/04 09:35:10;;;;;;;4.45;1.45;;;;;;;;;;4995029;28;20406;-66
2021/07/04 09:37:48;;;;;;;2.95;1.10;;;;;;;;;;5006153;28;20033;-66
2021/07/04 09:40:27;;;;;;;5.25;1.60;;;;;;;;;;4992361;28;20026;-65
2021/07/04 09:43:05;;;;;;;3.00;1.30;;;;;;;;;;4996756;28;20568;-66
2021/07/04 09:45:51;;;;;;;4.28;1.38;;;;;;;;;;4993117;28;20065;-67
2021/07/04 09:48:20;;;;;;;2.55;1.17;;;;;;;;;;4991761;28;20027;-64
2021/07/04 09:50:51;;;;;;;3.53;1.38;;;;;;;;;;4998398;28;20030;-65
2021/07/04 09:53:18;;;;;;;2.63;1.20;;;;;;;;;;4989139;28;20041;-65
2021/07/04 09:55:44;;;;;;;5.10;1.30;;;;;;;;;;4992201;28;20037;-65
2021/07/04 09:58:12;;;;;;;5.95;1.40;;;;;;;;;;4998735;28;20030;-66
2021/07/04 10:00:41;;;;;;;4.10;1.38;;;;;;;;;;4994563;28;20034;-66
2021/07/04 10:03:18;;;;;;;5.13;1.13;;;;;;;;;;4999428;28;20477;-66
2021/07/04 10:05:59;;;;;;;4.88;1.10;;;;;;;;;;4997041;28;20048;-65
2021/07/04 10:08:36;;;;;;;2.88;1.05;;;;;;;;;;4996510;28;20026;-66
2021/07/04 10:11:05;;;;;;;3.75;1.88;;;;;;;;;;4992992;28;20065;-65
2021/07/04 10:13:32;;;;;;;2.47;1.38;;;;;;;;;;4991648;28;20037;-66
2021/07/04 10:15:58;;;;;;;2.55;1.10;;;;;;;;;;4993278;28;20537;-65
2021/07/04 10:18:24;;;;;;;3.33;1.15;;;;;;;;;;4991260;28;20477;-66
2021/07/04 10:20:51;;;;;;;3.97;1.30;;;;;;;;;;4991715;28;20037;-66
2021/07/04 10:23:24;;;;;;;3.53;1.67;;;;;;;;;;4993762;28;20026;-65
2021/07/04 10:25:51;;;;;;;4.80;0.95;;;;;;;;;;5000788;28;20076;-66
2021/07/04 10:28:35;;;;;;;4.93;1.45;;;;;;;;;;5000379;28;20030;-66
2021/07/04 10:31:03;;;;;;;4.60;1.17;;;;;;;;;;4996797;28;20448;-63
2021/07/04 10:33:35;;;;;;;6.10;1.35;;;;;;;;;;4997571;28;20022;-58
2021/07/04 10:36:05;;;;;;;3.33;1.08;;;;;;;;;;4997121;28;20064;-58
2021/07/04 10:38:54;;;;;;;3.97;0.95;;;;;;;;;;4995554;28;20061;-59
2021/07/04 10:41:34;;;;;;;3.88;1.00;;;;;;;;;;4994336;28;20056;-59
2021/07/04 10:44:00;;;;;;;5.30;1.40;;;;;;;;;;5001537;28;20456;-59
2021/07/04 10:46:41;;;;;;;2.33;1.02;;;;;;;;;;4992737;28;20574;-59
2021/07/04 10:49:15;;;;;;;4.35;1.20;;;;;;;;;;4995346;28;20057;-59
2021/07/04 10:51:59;;;;;;;4.18;1.10;;;;;;;;;;4998745;28;20030;-59
2021/07/04 10:54:40;;;;;;;1.80;1.10;;;;;;;;;;4997243;28;20081;-58
2021/07/04 10:57:12;;;;;;;1.88;0.82;;;;;;;;;;4997044;28;20068;-60
2021/07/04 11:00:07;;;;;;;5.30;1.00;;;;;;;;;;4994506;28;20481;-59
2021/07/04 11:02:57;;;;;;;3.70;1.67;;;;;;;;;;4979609;28;20052;-60
2021/07/04 11:05:41;;;;;;;6.50;2.20;;;;;;;;;;4992165;28;20090;-65
2021/07/04 11:08:20;;;;;;;9.15;2.53;;;;;;;;;;4997121;28;20113;-66
2021/07/04 11:10:49;;;;;;;7.53;2.05;;;;;;;;;;4994733;28;20025;-66
2021/07/04 11:13:14;;;;;;;4.55;1.80;;;;;;;;;;4997342;28;20049;-65
2021/07/04 11:15:40;;;;;;;6.20;1.92;;;;;;;;;;4996486;28;20493;-66
2021/07/04 11:18:12;;;;;;;7.05;2.03;;;;;;;;;;5002295;28;20022;-65
2021/07/04 11:20:49;;;;;;;;;;;;;;;;;;5002718;28;20552;-65
2021/07/04 11:23:24;;;;;;;12.38;2.97;;;;;;;;;;4995388;28;19921;-66
2021/07/04 11:25:53;;;;;;;10.15;3.22;;;;;;;;;;4997283;28;20030;-66
2021/07/04 11:28:19;;;;;;;10.38;2.95;;;;;;;;;;4985761;28;20036;-66
2021/07/04 11:30:49;;;;;;;7.55;2.63;;;;;;;;;;4990415;28;20038;-66
2021/07/04 11:33:38;;;;;;;9.40;2.45;;;;;;;;;;4988639;28;20109;-65
2021/07/04 11:36:17;;;;;;;7.20;2.60;;;;;;;;;;4994405;28;20096;-67
2021/07/04 11:38:46;;;;;;;7.13;2.97;;;;;;;;;;4994571;28;20112;-65
2021/07/04 11:41:23;;;;;;;9.30;3.17;;;;;;;;;;4998968;28;20030;-65
2021/07/04 11:43:51;;;;;;;11.88;3.10;;;;;;;;;;5000775;28;20038;-66
2021/07/04 11:46:20;;;;;;;14.32;3.58;;;;;;;;;;4995350;28;20031;-65
2021/07/04 11:49:06;;;;;;;10.85;2.78;;;;;;;;;;5003900;28;20049;-65
2021/07/04 11:51:34;;;;;;;9.00;3.00;;;;;;;;;;4998826;28;20036;-66
2021/07/04 11:54:20;;;;;;;9.05;3.38;;;;;;;;;;4998109;28;20033;-66
2021/07/04 11:56:51;;;;;;;17.67;2.85;;;;;;;;;;4997126;28;20034;-67
2021/07/04 11:59:23;;;;;;;9.45;2.85;;;;;;;;;;4997505;28;20034;-65
2021/07/04 12:01:55;;;;;;;8.63;2.80;;;;;;;;;;5001866;28;20088;-67
2021/07/04 12:04:37;;;;;;;;;;;;;;;;;;4998049;28;20025;-66
2021/07/04 12:07:07;;;;;;;;;;;;;;;;;;4998697;28;19917;-66
2021/07/04 12:09:39;;;;;;;9.35;2.22;;;;;;;;;;5001428;28;19925;-67
2021/07/04 12:12:06;;;;;;;10.32;2.33;;;;;;;;;;4998893;28;20023;-66
2021/07/04 12:14:35;;;;;;;6.10;2.38;;;;;;;;;;5000114;28;20022;-66
2021/07/04 12:17:19;;;;;;;9.07;2.55;;;;;;;;;;4999501;28;20034;-66
2021/07/04 12:19:52;;;;;;;8.77;2.83;;;;;;;;;;4998634;28;20023;-66
2021/07/04 12:22:23;;;;;;;14.77;3.55;;;;;;;;;;4995431;28;20559;-65
2021/07/04 12:24:49;;;;;;;8.88;3.25;;;;;;;;;;4997243;28;20105;-59
2021/07/04 12:27:15;;;;;;;14.27;3.20;;;;;;;;;;4997710;28;20089;-66
2021/07/04 12:30:08;;;;;;;14.68;3.50;;;;;;;;;;4991199;28;20049;-66
2021/07/04 12:32:50;;;;;;;12.10;3.50;;;;;;;;;;5003742;28;20535;-66
2021/07/04 12:35:55;;;;;;;14.20;3.58;;;;;;;;;;4996961;28;20038;-66
2021/07/04 12:38:27;;;;;;;13.65;3.33;;;;;;;;;;4994437;28;20396;-67
2021/07/04 12:40:59;;;;;;;25.08;5.43;;;;;;;;;;4994882;28;20125;-68
2021/07/04 12:43:35;;;;;;;13.63;3.70;;;;;;;;;;4991245;28;20140;-68
2021/07/04 12:46:13;;;;;;;17.27;5.30;;;;;;;;;;4996662;28;20026;-66
2021/07/04 12:48:45;;;;;;;11.20;3.67;;;;;;;;;;4991857;28;20034;-66
2021/07/04 12:51:12;;;;;;;14.32;2.72;;;;;;;;;;5000242;28;20034;-67
2021/07/04 12:53:40;;;;;;;7.70;2.17;;;;;;;;;;4991727;28;20049;-68
2021/07/04 12:56:16;;;;;;;8.25;2.10;;;;;;;;;;4999953;28;20481;-68
2021/07/04 12:58:42;;;;;;;6.38;2.10;;;;;;;;;;4987720;28;20080;-67
2021/07/04 13:01:13;;;;;;;3.63;1.55;;;;;;;;;;4993240;28;20053;-67
2021/07/04 13:03:43;;;;;;;2.78;1.17;;;;;;;;;;4996028;28;20131;-67
2021/07/04 13:06:57;;;;;;;3.28;1.17;;;;;;;;;;4994758;28;20027;-67
2021/07/04 13:09:25;;;;;;;4.22;0.70;;;;;;;;;;4994396;28;20109;-68
2021/07/04 13:12:06;;;;;;;3.78;0.90;;;;;;;;;;4992077;28;20404;-67
2021/07/04 13:14:48;;;;;;;5.15;1.15;;;;;;;;;;4992922;28;20030;-67
2021/07/04 13:17:23;;;;;;;;;;;;;;;;;;4996150;28;20110;-67
2021/07/04 13:19:51;;;;;;;2.05;0.88;;;;;;;;;;4993538;28;19913;-67
2021/07/04 13:22:23;;;;;;;2.85;0.85;;;;;;;;;;4995503;28;20085;-68
2021/07/04 13:24:50;;;;;;;2.83;0.77;;;;;;;;;;4996490;28;20050;-69
2021/07/04 13:27:28;;;;;;;2.05;0.60;;;;;;;;;;4995653;28;20030;-68
2021/07/04 13:29:55;;;;;;;1.08;0.88;;;;;;;;;;4999777;28;20033;-68
2021/07/04 13:32:29;;;;;;;0.38;0.38;;;;;;;;;;4992959;28;20113;-68
2021/07/04 13:34:54;;;;;;;4.15;0.63;;;;;;;;;;4995977;28;20029;-68
2021/07/04 13:37:21;;;;;;;1.40;0.60;;;;;;;;;;4998170;28;20022;-68
2021/07/04 13:40:06;;;;;;;1.23;0.60;;;;;;;;;;4997767;28;20026;-68
2021/07/04 13:42:35;;;;;;;1.63;0.60;;;;;;;;;;4999445;28;20046;-68
2021/07/04 13:45:03;;;;;;;1.08;0.60;;;;;;;;;;4994762;28;20105;-68
2021/07/04 13:47:29;;;;;;;2.47;0.60;;;;;;;;;;4995662;28;20035;-68
2021/07/04 13:49:55;;;;;;;0.98;0.55;;;;;;;;;;4994154;28;20038;-69
2021/07/04 13:52:21;;;;;;;3.08;0.57;;;;;;;;;;4991019;28;20041;-68
2021/07/04 13:54:47;;;;;;;1.38;0.43;;;;;;;;;;4991085;28;20026;-69
2021/07/04 13:57:13;;;;;;;1.42;0.88;;;;;;;;;;4995599;28;20072;-69
2021/07/04 13:59:38;;;;;;;1.58;0.68;;;;;;;;;;4996555;28;20057;-68
2021/07/04 14:02:05;;;;;;;0.93;0.60;;;;;;;;;;5000556;28;20026;-68
2021/07/04 14:04:31;;;;;;;3.00;1.10;;;;;;;;;;4997560;28;20018;-68
2021/07/04 14:06:59;;;;;;;4.88;0.93;;;;;;;;;;4995475;28;20041;-69
2021/07/04 14:09:26;;;;;;;1.83;0.63;;;;;;;;;;4996782;28;20061;-70
2021/07/04 14:11:51;;;;;;;2.15;0.70;;;;;;;;;;4995525;28;20485;-69
2021/07/04 14:14:17;;;;;;;5.00;0.95;;;;;;;;;;4993814;28;20034;-68
2021/07/04 14:16:44;;;;;;;1.92;0.63;;;;;;;;;;5002179;28;20037;-68
2021/07/04 14:19:10;;;;;;;0.40;0.40;;;;;;;;;;4992853;28;20034;-68
2021/07/04 14:21:36;;;;;;;1.25;0.65;;;;;;;;;;4988216;28;20156;-68
2021/07/04 14:24:01;;;;;;;1.15;0.55;;;;;;;;;;4994770;28;20033;-69
2021/07/04 14:26:27;;;;;;;2.45;0.70;;;;;;;;;;4998084;28;20034;-68
2021/07/04 14:28:52;;;;;;;2.63;0.60;;;;;;;;;;4993498;28;20088;-68
2021/07/04 14:31:18;;;;;;;0.93;0.70;;;;;;;;;;4998865;28;20451;-68
2021/07/04 14:33:44;;;;;;;1.13;0.57;;;;;;;;;;4999342;28;20154;-68
2021/07/04 14:36:10;;;;;;;0.60;0.57;;;;;;;;;;4994904;28;20052;-66
2021/07/04 14:38:38;;;;;;;2.05;0.38;;;;;;;;;;4997519;28;20033;-67
2021/07/04 14:41:05;;;;;;;0.57;0.38;;;;;;;;;;4993528;28;20436;-67
2021/07/04 14:43:31;;;;;;;0.30;0.30;;;;;;;;;;4989677;28;20513;-60
2021/07/04 14:45:56;;;;;;;0.22;0.22;;;;;;;;;;4991943;28;20440;-61
2021/07/04 14:48:22;;;;;;;0.55;0.20;;;;;;;;;;4995317;28;20057;-60
2021/07/04 14:50:53;;;;;;;2.35;0.20;;;;;;;;;;4994514;28;20116;-60